createdAt,value
2023-01-17T00:00:35.023Z,2.20
2023-01-17T00:03:01.792Z,2.20
2023-01-17T00:05:47.118Z,2.20
2023-01-17T00:08:32.225Z,2.20
2023-01-17T00:10:59.195Z,2.90
2023-01-17T00:13:25.908Z,2.20
2023-01-17T00:15:55.480Z,2.20
2023-01-17T00:18:22.157Z,2.20
2023-01-17T00:21:07.558Z,2.20
2023-01-17T00:23:52.798Z,2.20
2023-01-17T00:26:21.680Z,2.60
2023-01-17T00:28:48.482Z,2.20
2023-01-17T00:31:15.585Z,2.20
2023-01-17T00:33:42.324Z,2.20
2023-01-17T00:36:09.481Z,2.10
2023-01-17T00:38:37.102Z,2.20
2023-01-17T00:41:05.047Z,2.10
2023-01-17T00:43:50.750Z,2.20
2023-01-17T00:46:36.313Z,2.70
2023-01-17T00:49:21.711Z,2.20
2023-01-17T00:52:07.035Z,2.20
2023-01-17T00:54:52.268Z,2.20
2023-01-17T00:57:37.342Z,2.20
2023-01-17T01:00:23.214Z,2.20
2023-01-17T01:03:08.729Z,2.10
2023-01-17T01:05:55.354Z,2.10
2023-01-17T01:08:44.064Z,2.10
2023-01-17T01:11:35.005Z,2.00
2023-01-17T01:14:21.074Z,1.90
2023-01-17T01:17:06.114Z,1.90
2023-01-17T01:19:52.359Z,1.80
2023-01-17T01:22:37.977Z,1.80
2023-01-17T01:25:23.634Z,1.80
2023-01-17T01:28:09.141Z,1.80
2023-01-17T01:30:54.538Z,2.20
2023-01-17T01:33:21.143Z,1.70
2023-01-17T01:35:55.299Z,1.70
2023-01-17T01:38:24.046Z,1.70
2023-01-17T01:40:56.475Z,1.70
2023-01-17T01:43:43.386Z,1.70
2023-01-17T01:46:11.185Z,1.70
2023-01-17T01:48:37.852Z,1.60
2023-01-17T01:51:07.172Z,1.60
2023-01-17T01:53:35.550Z,1.60
2023-01-17T01:56:03.367Z,2.50
2023-01-17T01:58:32.041Z,1.60
2023-01-17T02:00:58.917Z,1.60
2023-01-17T02:03:29.376Z,1.70
2023-01-17T02:05:57.751Z,2.60
2023-01-17T02:08:24.580Z,2.50
2023-01-17T02:10:54.547Z,1.90
2023-01-17T02:13:21.325Z,2.90
2023-01-17T02:15:54.219Z,2.00
2023-01-17T02:18:38.539Z,2.00
2023-01-17T02:21:12.938Z,2.20
2023-01-17T02:23:51.877Z,2.00
2023-01-17T02:26:30.980Z,1.70
2023-01-17T02:29:06.847Z,2.40
2023-01-17T02:31:42.004Z,2.30
2023-01-17T02:34:22.241Z,2.10
2023-01-17T02:36:55.995Z,2.00
2023-01-17T02:39:28.250Z,2.10
2023-01-17T02:42:01.344Z,2.00
2023-01-17T02:44:28.048Z,2.10
2023-01-17T02:46:56.277Z,2.00
2023-01-17T02:49:26.454Z,2.00
2023-01-17T02:51:56.065Z,1.90
2023-01-17T02:54:29.619Z,1.90
2023-01-17T02:57:21.618Z,1.90
2023-01-17T02:59:51.239Z,1.90
2023-01-17T03:02:23.981Z,1.80
2023-01-17T03:05:09.412Z,1.80
2023-01-17T03:07:37.864Z,1.70
2023-01-17T03:10:05.952Z,1.70
2023-01-17T03:12:33.556Z,1.60
2023-01-17T03:15:00.772Z,1.60
2023-01-17T03:17:30.218Z,1.60
2023-01-17T03:19:57.271Z,1.30
2023-01-17T03:22:24.108Z,1.10
2023-01-17T03:24:50.752Z,1.50
2023-01-17T03:27:17.479Z,1.50
2023-01-17T03:29:44.259Z,1.50
2023-01-17T03:32:10.959Z,1.50
2023-01-17T03:34:37.651Z,1.40
2023-01-17T03:37:06.794Z,1.70
2023-01-17T03:39:33.460Z,2.20
2023-01-17T03:42:00.205Z,1.50
2023-01-17T03:44:26.987Z,1.50
2023-01-17T03:46:53.594Z,2.30
2023-01-17T03:49:20.392Z,1.50
2023-01-17T03:51:47.026Z,1.90
2023-01-17T03:54:13.896Z,1.60
2023-01-17T03:56:45.878Z,1.90
2023-01-17T03:59:13.353Z,1.70
2023-01-17T04:01:40.298Z,0.60
2023-01-17T04:04:07.000Z,1.90
2023-01-17T04:06:33.729Z,1.90
2023-01-17T04:09:00.448Z,1.40
2023-01-17T04:11:27.104Z,1.20
2023-01-17T04:13:55.450Z,1.70
2023-01-17T04:16:24.546Z,0.80
2023-01-17T04:18:51.593Z,1.30
2023-01-17T04:21:21.209Z,1.30
2023-01-17T04:23:47.942Z,1.30
2023-01-17T04:26:14.594Z,1.30
2023-01-17T04:28:47.323Z,1.60
2023-01-17T04:31:17.646Z,1.50
2023-01-17T04:33:44.381Z,1.30
2023-01-17T04:36:11.015Z,1.30
2023-01-17T04:38:37.635Z,1.20
2023-01-17T04:41:04.335Z,1.30
2023-01-17T04:43:30.959Z,1.30
2023-01-17T04:45:57.778Z,1.20
2023-01-17T04:48:24.634Z,1.20
2023-01-17T04:50:51.309Z,1.70
2023-01-17T04:53:17.999Z,1.20
2023-01-17T04:55:45.539Z,1.90
2023-01-17T04:58:12.659Z,1.80
2023-01-17T05:00:39.532Z,1.20
2023-01-17T05:03:07.338Z,1.20
2023-01-17T05:05:34.067Z,1.50
2023-01-17T05:08:00.695Z,1.40
2023-01-17T05:10:27.406Z,1.30
2023-01-17T05:12:54.922Z,1.90
2023-01-17T05:15:22.252Z,1.80
2023-01-17T05:17:50.498Z,1.50
2023-01-17T05:20:17.288Z,1.30
2023-01-17T05:22:43.941Z,1.50
2023-01-17T05:25:10.597Z,1.70
2023-01-17T05:27:38.364Z,1.60
2023-01-17T05:30:05.452Z,1.50
2023-01-17T05:32:32.170Z,1.40
2023-01-17T05:34:58.821Z,1.40
2023-01-17T05:37:25.450Z,1.80
2023-01-17T05:39:52.097Z,2.10
2023-01-17T05:42:18.739Z,1.40
2023-01-17T05:44:45.410Z,1.40
2023-01-17T05:47:12.211Z,1.40
2023-01-17T05:49:39.060Z,1.60
2023-01-17T05:52:05.785Z,1.40
2023-01-17T05:54:32.523Z,1.60
2023-01-17T05:56:59.143Z,1.40
2023-01-17T05:59:36.404Z,1.40
2023-01-17T06:02:03.793Z,1.40
2023-01-17T06:04:30.536Z,1.30
2023-01-17T06:06:57.246Z,1.50
2023-01-17T06:09:23.987Z,1.30
2023-01-17T06:11:50.598Z,1.50
2023-01-17T06:14:17.255Z,1.30
2023-01-17T06:16:43.973Z,1.50
2023-01-17T06:19:10.742Z,1.20
2023-01-17T06:21:37.497Z,1.20
2023-01-17T06:24:04.519Z,1.20
2023-01-17T06:26:31.408Z,1.20
2023-01-17T06:28:58.188Z,1.60
2023-01-17T06:31:27.753Z,1.40
2023-01-17T06:33:55.290Z,1.20
2023-01-17T06:36:24.326Z,1.30
2023-01-17T06:38:51.455Z,1.10
2023-01-17T06:41:18.193Z,1.10
2023-01-17T06:43:44.923Z,1.00
2023-01-17T06:46:11.774Z,1.10
2023-01-17T06:48:38.615Z,1.00
2023-01-17T06:51:05.475Z,1.00
2023-01-17T06:53:32.214Z,0.90
2023-01-17T06:55:58.966Z,0.90
2023-01-17T06:58:25.686Z,0.80
2023-01-17T07:00:52.617Z,0.70
2023-01-17T07:03:21.889Z,1.10
2023-01-17T07:05:49.243Z,0.50
2023-01-17T07:08:17.054Z,0.40
2023-01-17T07:10:47.957Z,0.30
2023-01-17T07:13:15.144Z,0.30
2023-01-17T07:15:42.050Z,0.30
2023-01-17T07:18:08.786Z,0.30
2023-01-17T07:20:35.531Z,0.30
2023-01-17T07:23:02.347Z,0.30
2023-01-17T07:25:28.990Z,0.20
2023-01-17T07:27:57.604Z,0.10
2023-01-17T07:30:24.841Z,0.00
2023-01-17T07:32:55.819Z,0.00
2023-01-17T07:35:23.881Z,0.00
2023-01-17T07:37:51.117Z,-0.10
2023-01-17T07:40:18.961Z,-0.10
2023-01-17T07:42:46.694Z,-0.10
2023-01-17T07:45:15.561Z,-0.20
2023-01-17T07:47:42.462Z,-0.10
2023-01-17T07:50:10.110Z,-0.10
2023-01-17T07:52:36.792Z,-0.10
2023-01-17T07:55:03.629Z,0.00
2023-01-17T07:57:30.457Z,0.10
2023-01-17T07:59:57.018Z,0.10
2023-01-17T08:02:24.144Z,0.20
2023-01-17T08:04:50.892Z,0.30
2023-01-17T08:07:17.629Z,0.30
2023-01-17T08:09:44.675Z,0.30
2023-01-17T08:12:11.337Z,0.40
2023-01-17T08:14:38.008Z,0.50
2023-01-17T08:17:16.339Z,0.40
2023-01-17T08:19:43.362Z,0.30
2023-01-17T08:22:12.071Z,0.50
2023-01-17T08:24:38.865Z,0.50
2023-01-17T08:27:05.569Z,0.60
2023-01-17T08:29:32.312Z,0.60
2023-01-17T08:31:59.054Z,0.70
2023-01-17T08:34:26.298Z,1.30
2023-01-17T08:36:54.164Z,0.90
2023-01-17T08:39:21.785Z,1.00
2023-01-17T08:41:48.628Z,1.00
2023-01-17T08:44:15.832Z,0.90
2023-01-17T08:46:44.131Z,0.80
2023-01-17T08:49:11.879Z,0.80
2023-01-17T08:51:38.650Z,0.90
2023-01-17T08:54:05.934Z,1.30
2023-01-17T08:56:32.687Z,1.70
2023-01-17T08:58:59.366Z,1.30
2023-01-17T09:01:26.149Z,1.30
2023-01-17T09:03:52.889Z,1.30
2023-01-17T09:06:19.956Z,1.40
2023-01-17T09:08:47.820Z,1.50
2023-01-17T09:11:17.040Z,1.40
2023-01-17T09:13:44.594Z,1.40
2023-01-17T09:16:11.508Z,1.40
2023-01-17T09:18:38.623Z,1.40
2023-01-17T09:21:12.429Z,1.40
2023-01-17T09:23:39.651Z,1.40
2023-01-17T09:26:06.765Z,1.50
2023-01-17T09:28:43.787Z,1.60
2023-01-17T09:31:10.532Z,1.70
2023-01-17T09:33:37.905Z,1.70
2023-01-17T09:36:05.456Z,1.80
2023-01-17T09:38:33.082Z,1.90
2023-01-17T09:41:02.732Z,1.60
2023-01-17T09:43:43.958Z,1.60
2023-01-17T09:46:22.487Z,1.70
2023-01-17T09:48:59.040Z,2.00
2023-01-17T09:51:25.780Z,1.80
2023-01-17T09:53:54.632Z,1.80
2023-01-17T09:56:31.161Z,1.70
2023-01-17T09:59:19.814Z,1.80
2023-01-17T10:02:14.831Z,2.00
2023-01-17T10:04:56.643Z,1.80
2023-01-17T10:07:44.488Z,2.10
2023-01-17T10:10:34.145Z,2.20
2023-01-17T10:13:19.660Z,2.20
2023-01-17T10:16:16.353Z,2.50
2023-01-17T10:18:51.752Z,2.50
2023-01-17T10:21:18.366Z,2.50
2023-01-17T10:24:19.239Z,2.50
2023-01-17T10:26:50.049Z,2.70
2023-01-17T10:29:20.984Z,2.40
2023-01-17T10:32:01.703Z,2.80
2023-01-17T10:34:36.210Z,3.00
2023-01-17T10:37:31.230Z,3.30
2023-01-17T10:40:13.936Z,3.40
2023-01-17T10:42:53.638Z,3.50
2023-01-17T10:45:28.306Z,3.20
2023-01-17T10:48:41.650Z,3.30
2023-01-17T10:51:26.898Z,3.20
2023-01-17T10:54:09.974Z,3.40
2023-01-17T10:56:39.612Z,3.00
2023-01-17T10:59:18.648Z,2.70
2023-01-17T11:01:45.678Z,3.10
2023-01-17T11:04:21.540Z,3.20
2023-01-17T11:07:08.536Z,3.40
2023-01-17T11:09:44.172Z,3.70
2023-01-17T11:12:28.202Z,3.40
2023-01-17T11:15:03.863Z,3.60
2023-01-17T11:17:31.752Z,3.60
2023-01-17T11:20:22.683Z,3.90
2023-01-17T11:23:04.581Z,3.50
2023-01-17T11:25:35.621Z,3.50
2023-01-17T11:28:30.472Z,3.70
2023-01-17T11:31:03.669Z,3.70
2023-01-17T11:33:49.109Z,3.70
2023-01-17T11:36:19.663Z,3.70
2023-01-17T11:39:21.037Z,3.50
2023-01-17T11:41:48.413Z,3.50
2023-01-17T11:44:31.051Z,3.40
2023-01-17T11:47:06.918Z,3.60
2023-01-17T11:49:33.632Z,3.90
2023-01-17T11:52:01.794Z,3.80
2023-01-17T11:54:33.460Z,3.80
2023-01-17T11:57:01.528Z,4.00
2023-01-17T11:59:35.186Z,3.90
2023-01-17T12:02:32.305Z,4.00
2023-01-17T12:05:36.773Z,4.10
2023-01-17T12:08:30.357Z,4.30
2023-01-17T12:11:11.106Z,4.30
2023-01-17T12:14:08.483Z,4.50
2023-01-17T12:17:01.070Z,4.50
2023-01-17T12:19:43.580Z,4.40
2023-01-17T12:22:25.365Z,4.30
2023-01-17T12:25:03.154Z,3.70
2023-01-17T12:27:53.024Z,3.70
2023-01-17T12:30:35.768Z,3.90
2023-01-17T12:33:22.692Z,3.80
2023-01-17T12:36:01.390Z,3.80
2023-01-17T12:38:38.877Z,3.80
2023-01-17T12:41:23.443Z,3.90
2023-01-17T12:43:55.276Z,4.00
2023-01-17T12:46:28.351Z,4.10
2023-01-17T12:48:58.383Z,4.20
2023-01-17T12:51:29.037Z,4.00
2023-01-17T12:54:15.681Z,4.00
2023-01-17T12:57:14.800Z,4.00
2023-01-17T12:59:46.196Z,4.00
2023-01-17T13:02:20.506Z,4.20
2023-01-17T13:04:58.483Z,4.20
2023-01-17T13:07:44.147Z,4.10
2023-01-17T13:10:16.927Z,4.10
2023-01-17T13:12:43.871Z,4.00
2023-01-17T13:15:18.339Z,3.80
2023-01-17T13:17:49.716Z,3.80
2023-01-17T13:20:19.533Z,3.70
2023-01-17T13:22:46.867Z,3.70
2023-01-17T13:25:22.976Z,3.60
2023-01-17T13:28:12.081Z,3.60
2023-01-17T13:30:47.963Z,3.60
2023-01-17T13:33:33.407Z,3.50
2023-01-17T13:36:18.995Z,3.60
2023-01-17T13:39:07.445Z,3.60
2023-01-17T13:41:34.050Z,3.50
2023-01-17T13:44:20.515Z,3.60
2023-01-17T13:46:53.010Z,3.50
2023-01-17T13:49:34.080Z,3.50
2023-01-17T13:52:02.254Z,3.50
2023-01-17T13:54:30.591Z,3.40
2023-01-17T13:57:16.146Z,3.40
2023-01-17T13:59:42.784Z,3.50
2023-01-17T14:02:38.784Z,3.40
2023-01-17T14:05:28.352Z,3.40
2023-01-17T14:08:04.983Z,3.40
2023-01-17T14:10:37.376Z,3.40
2023-01-17T14:13:06.492Z,3.40
2023-01-17T14:15:46.769Z,3.40
2023-01-17T14:18:36.809Z,3.30
2023-01-17T14:21:11.282Z,3.30
2023-01-17T14:23:49.620Z,3.30
2023-01-17T14:26:56.392Z,3.30
2023-01-17T14:29:47.969Z,3.30
2023-01-17T14:32:21.028Z,3.30
2023-01-17T14:34:50.177Z,3.30
2023-01-17T14:37:43.930Z,3.20
2023-01-17T14:40:15.694Z,3.30
2023-01-17T14:42:43.345Z,3.20
2023-01-17T14:45:17.712Z,3.20
2023-01-17T14:47:46.025Z,3.20
2023-01-17T14:50:20.765Z,3.30
2023-01-17T14:52:48.450Z,3.30
2023-01-17T14:55:20.245Z,3.30
2023-01-17T14:57:56.127Z,3.30
2023-01-17T15:00:25.329Z,3.30
2023-01-17T15:02:53.607Z,3.30
2023-01-17T15:05:23.384Z,3.30
2023-01-17T15:07:53.047Z,3.30
2023-01-17T15:10:28.189Z,3.20
2023-01-17T15:12:56.382Z,3.20
2023-01-17T15:15:39.992Z,3.20
2023-01-17T15:18:25.893Z,3.20
2023-01-17T15:20:57.878Z,3.20
2023-01-17T15:23:30.620Z,3.20
2023-01-17T15:25:58.693Z,3.10
2023-01-17T15:28:25.714Z,3.10
2023-01-17T15:31:15.357Z,3.10
2023-01-17T15:33:47.077Z,3.10
2023-01-17T15:36:33.104Z,3.10
2023-01-17T15:39:18.501Z,3.10
2023-01-17T15:41:45.224Z,3.00
2023-01-17T15:44:47.582Z,3.00
2023-01-17T15:47:31.438Z,3.00
2023-01-17T15:49:58.569Z,2.90
2023-01-17T15:52:25.335Z,2.90
2023-01-17T15:54:55.949Z,2.80
2023-01-17T15:57:24.135Z,2.90
2023-01-17T16:00:08.583Z,2.80
2023-01-17T16:02:37.386Z,2.80
2023-01-17T16:05:33.376Z,2.80
2023-01-17T16:08:00.012Z,2.70
2023-01-17T16:10:28.680Z,2.70
2023-01-17T16:12:56.333Z,2.70
2023-01-17T16:15:23.602Z,2.60
2023-01-17T16:17:56.368Z,2.60
2023-01-17T16:20:28.681Z,2.50
2023-01-17T16:22:55.683Z,2.50
2023-01-17T16:25:23.693Z,2.70
2023-01-17T16:27:51.662Z,2.40
2023-01-17T16:30:20.099Z,2.40
2023-01-17T16:32:51.130Z,2.40
2023-01-17T16:35:20.840Z,2.40
2023-01-17T16:38:01.385Z,1.80
2023-01-17T16:40:29.821Z,2.30
2023-01-17T16:42:57.024Z,2.20
2023-01-17T16:45:25.084Z,2.70
2023-01-17T16:47:52.900Z,2.30
2023-01-17T16:50:24.255Z,1.50
2023-01-17T16:52:51.712Z,2.50
2023-01-17T16:55:19.389Z,2.50
2023-01-17T16:57:48.469Z,2.10
2023-01-17T17:00:15.538Z,2.00
2023-01-17T17:02:42.340Z,2.00
2023-01-17T17:05:09.575Z,2.70
2023-01-17T17:07:46.605Z,2.00
2023-01-17T17:10:15.087Z,2.00
2023-01-17T17:12:42.283Z,2.60
2023-01-17T17:15:09.695Z,2.30
2023-01-17T17:17:37.076Z,1.90
2023-01-17T17:20:04.812Z,1.90
2023-01-17T17:22:32.050Z,1.90
2023-01-17T17:24:59.064Z,2.20
2023-01-17T17:27:27.916Z,1.80
2023-01-17T17:29:55.036Z,1.90
2023-01-17T17:32:21.936Z,2.30
2023-01-17T17:34:50.821Z,1.90
2023-01-17T17:37:17.507Z,2.30
2023-01-17T17:39:47.217Z,1.60
2023-01-17T17:42:14.097Z,1.60
2023-01-17T17:44:40.733Z,2.20
2023-01-17T17:47:07.360Z,1.50
2023-01-17T17:49:34.267Z,1.10
2023-01-17T17:52:05.068Z,1.30
2023-01-17T17:54:31.788Z,1.40
2023-01-17T17:56:58.451Z,1.80
2023-01-17T17:59:25.148Z,1.40
2023-01-17T18:02:02.264Z,1.30
2023-01-17T18:04:29.771Z,1.30
2023-01-17T18:06:59.703Z,1.70
2023-01-17T18:09:26.421Z,1.30
2023-01-17T18:11:53.113Z,1.20
2023-01-17T18:14:24.083Z,1.40
2023-01-17T18:16:50.860Z,1.20
2023-01-17T18:19:18.835Z,1.90
2023-01-17T18:21:45.737Z,1.20
2023-01-17T18:24:14.717Z,1.20
2023-01-17T18:26:44.594Z,1.20
2023-01-17T18:29:14.685Z,1.20
2023-01-17T18:31:41.835Z,1.10
2023-01-17T18:34:11.743Z,1.10
2023-01-17T18:36:38.643Z,1.30
2023-01-17T18:39:10.296Z,1.20
2023-01-17T18:41:37.175Z,1.10
2023-01-17T18:44:10.645Z,1.30
2023-01-17T18:46:46.871Z,1.10
2023-01-17T18:49:16.522Z,1.00
2023-01-17T18:51:51.752Z,1.00
2023-01-17T18:54:20.800Z,1.40
2023-01-17T18:56:48.250Z,1.00
2023-01-17T18:59:21.518Z,1.70
2023-01-17T19:01:50.795Z,0.90
2023-01-17T19:04:18.378Z,1.00
2023-01-17T19:06:48.275Z,1.00
2023-01-17T19:09:16.883Z,1.40
2023-01-17T19:11:52.769Z,1.00
2023-01-17T19:14:20.972Z,1.00
2023-01-17T19:16:47.668Z,1.00
2023-01-17T19:19:15.235Z,1.00
2023-01-17T19:21:42.201Z,0.70
2023-01-17T19:24:14.956Z,0.80
2023-01-17T19:26:42.433Z,1.00
2023-01-17T19:29:10.480Z,1.00
2023-01-17T19:31:40.292Z,1.00
2023-01-17T19:34:07.116Z,1.00
2023-01-17T19:36:43.494Z,0.90
2023-01-17T19:39:10.230Z,0.50
2023-01-17T19:41:38.391Z,1.20
2023-01-17T19:44:09.316Z,1.20
2023-01-17T19:46:36.742Z,0.90
2023-01-17T19:49:04.389Z,1.30
2023-01-17T19:51:31.129Z,1.00
2023-01-17T19:54:01.795Z,0.90
2023-01-17T19:56:28.916Z,0.90
2023-01-17T19:59:00.599Z,1.00
2023-01-17T20:01:30.152Z,1.20
2023-01-17T20:03:58.240Z,1.40
2023-01-17T20:06:26.309Z,1.30
2023-01-17T20:08:52.927Z,1.00
2023-01-17T20:11:23.170Z,0.90
2023-01-17T20:13:53.330Z,1.00
2023-01-17T20:16:20.827Z,1.00
2023-01-17T20:18:47.585Z,0.90
2023-01-17T20:21:24.850Z,0.90
2023-01-17T20:23:55.680Z,1.40
2023-01-17T20:26:23.793Z,1.00
2023-01-17T20:28:53.978Z,1.00
2023-01-17T20:31:22.641Z,1.10
2023-01-17T20:33:52.299Z,0.90
2023-01-17T20:36:21.454Z,0.90
2023-01-17T20:38:48.713Z,1.20
2023-01-17T20:41:17.124Z,1.90
2023-01-17T20:43:45.683Z,1.50
2023-01-17T20:46:12.799Z,1.20
2023-01-17T20:48:46.386Z,1.20
2023-01-17T20:51:13.288Z,0.90
2023-01-17T20:53:52.004Z,0.90
2023-01-17T20:56:21.709Z,0.80
2023-01-17T20:58:54.737Z,0.90
2023-01-17T21:01:24.513Z,0.90
2023-01-17T21:03:53.154Z,0.80
2023-01-17T21:06:21.644Z,0.90
2023-01-17T21:08:48.665Z,0.90
2023-01-17T21:11:16.860Z,1.20
2023-01-17T21:13:43.644Z,1.10
2023-01-17T21:16:12.701Z,1.50
2023-01-17T21:18:39.614Z,0.80
2023-01-17T21:21:08.004Z,0.80
2023-01-17T21:23:38.603Z,1.40
2023-01-17T21:26:06.540Z,0.80
2023-01-17T21:28:36.411Z,0.80
2023-01-17T21:31:22.888Z,0.80
2023-01-17T21:33:51.380Z,0.70
2023-01-17T21:36:23.426Z,0.90
2023-01-17T21:38:52.116Z,0.70
2023-01-17T21:41:22.947Z,0.70
2023-01-17T21:43:59.932Z,0.70
2023-01-17T21:46:27.115Z,0.00
2023-01-17T21:48:57.160Z,1.70
2023-01-17T21:51:24.317Z,0.60
2023-01-17T21:53:51.061Z,0.80
2023-01-17T21:56:38.118Z,0.10
2023-01-17T21:59:04.909Z,0.90
2023-01-17T22:01:33.126Z,0.60
2023-01-17T22:04:01.179Z,0.60
2023-01-17T22:06:28.922Z,1.20
2023-01-17T22:08:56.252Z,0.30
2023-01-17T22:11:24.518Z,0.60
2023-01-17T22:13:52.888Z,0.60
2023-01-17T22:16:20.919Z,0.60
2023-01-17T22:18:47.891Z,1.20
2023-01-17T22:21:19.291Z,1.30
2023-01-17T22:23:46.962Z,0.60
2023-01-17T22:26:13.598Z,0.50
2023-01-17T22:28:40.566Z,0.60
2023-01-17T22:31:12.899Z,0.50
2023-01-17T22:33:40.679Z,0.80
2023-01-17T22:36:14.295Z,1.20
2023-01-17T22:38:41.931Z,0.60
2023-01-17T22:41:10.220Z,1.10
2023-01-17T22:43:41.058Z,1.10
2023-01-17T22:46:09.665Z,1.10
2023-01-17T22:48:37.539Z,0.50
2023-01-17T22:51:04.832Z,0.80
2023-01-17T22:53:31.754Z,0.50
2023-01-17T22:55:59.452Z,1.20
2023-01-17T22:58:32.057Z,0.80
2023-01-17T23:01:06.497Z,0.30
2023-01-17T23:03:35.820Z,0.50
2023-01-17T23:06:13.450Z,-0.10
2023-01-17T23:08:49.765Z,0.50
2023-01-17T23:11:41.093Z,0.50
2023-01-17T23:14:28.154Z,0.30
2023-01-17T23:17:13.446Z,0.40
2023-01-17T23:19:40.044Z,0.40
2023-01-17T23:22:16.650Z,0.40
2023-01-17T23:24:43.298Z,0.40
2023-01-17T23:27:30.204Z,0.40
2023-01-17T23:29:56.841Z,0.40
2023-01-17T23:32:23.523Z,0.30
2023-01-17T23:34:50.303Z,0.40
2023-01-17T23:37:18.461Z,0.30
2023-01-17T23:39:45.076Z,0.30
2023-01-17T23:42:30.421Z,0.30
2023-01-17T23:44:57.327Z,0.30
2023-01-17T23:47:23.968Z,0.30
2023-01-17T23:49:50.643Z,0.30
2023-01-17T23:52:17.342Z,0.30
2023-01-17T23:54:43.970Z,0.30
2023-01-17T23:57:10.570Z,0.30
2023-01-17T23:59:37.180Z,0.30
